createdAt,value
2022-08-08T00:00:55.847Z,16.79
2022-08-08T00:03:13.221Z,16.72
2022-08-08T00:06:35.337Z,16.58
2022-08-08T00:09:27.603Z,16.47
2022-08-08T00:12:29.608Z,16.25
2022-08-08T00:15:24.165Z,16.34
2022-08-08T00:18:13.288Z,16.32
2022-08-08T00:21:01.457Z,16.09
2022-08-08T00:23:54.502Z,16.17
2022-08-08T00:26:46.165Z,15.98
2022-08-08T00:29:46.462Z,15.93
2022-08-08T00:32:44.874Z,15.87
2022-08-08T00:35:34.389Z,16.02
2022-08-08T00:38:55.805Z,15.84
2022-08-08T00:42:08.889Z,15.65
2022-08-08T00:45:21.412Z,15.42
2022-08-08T00:48:58.955Z,15.38
2022-08-08T00:51:46.395Z,15.29
2022-08-08T00:54:56.084Z,15.18
2022-08-08T00:58:12.440Z,15.08
2022-08-08T01:01:15.863Z,15.03
2022-08-08T01:04:48.454Z,14.99
2022-08-08T01:07:54.827Z,14.95
2022-08-08T01:11:24.646Z,14.96
2022-08-08T01:14:54.778Z,14.69
2022-08-08T01:17:53.246Z,14.90
2022-08-08T01:22:03.847Z,14.87
2022-08-08T01:24:43.499Z,14.90
2022-08-08T01:27:47.445Z,14.90
2022-08-08T01:30:57.102Z,14.88
2022-08-08T01:34:04.996Z,14.97
2022-08-08T01:37:57.921Z,15.02
2022-08-08T01:40:35.970Z,14.88
2022-08-08T01:43:38.528Z,14.86
2022-08-08T01:46:40.309Z,14.67
2022-08-08T01:49:56.915Z,14.68
2022-08-08T01:54:19.858Z,14.67
2022-08-08T01:56:28.236Z,14.50
2022-08-08T02:00:01.803Z,14.21
2022-08-08T02:02:59.211Z,14.36
2022-08-08T02:05:59.179Z,14.47
2022-08-08T02:08:47.162Z,14.41
2022-08-08T02:11:59.074Z,14.36
2022-08-08T02:15:11.155Z,14.25
2022-08-08T02:18:11.490Z,14.22
2022-08-08T02:21:26.100Z,14.05
2022-08-08T02:24:46.342Z,14.11
2022-08-08T02:27:47.785Z,14.07
2022-08-08T02:31:58.463Z,14.02
2022-08-08T02:34:39.564Z,14.02
2022-08-08T02:37:58.316Z,13.90
2022-08-08T02:40:45.188Z,13.76
2022-08-08T02:44:38.730Z,13.87
2022-08-08T02:47:32.798Z,13.83
2022-08-08T02:50:47.317Z,13.82
2022-08-08T02:54:14.707Z,13.58
2022-08-08T02:57:20.627Z,13.49
2022-08-08T03:00:37.028Z,13.69
2022-08-08T03:05:05.253Z,13.58
2022-08-08T03:07:23.509Z,13.35
2022-08-08T03:10:44.337Z,13.45
2022-08-08T03:15:58.357Z,13.40
2022-08-08T03:16:59.782Z,13.21
2022-08-08T03:20:08.174Z,13.07
2022-08-08T03:22:57.261Z,12.89
2022-08-08T03:25:46.784Z,12.83
2022-08-08T03:28:51.119Z,12.87
2022-08-08T03:32:06.361Z,12.91
2022-08-08T03:34:52.406Z,12.96
2022-08-08T03:37:59.629Z,12.90
2022-08-08T03:40:52.010Z,12.81
2022-08-08T03:43:38.581Z,12.85
2022-08-08T03:46:25.533Z,12.85
2022-08-08T03:49:58.846Z,12.91
2022-08-08T03:52:26.772Z,12.97
2022-08-08T03:55:20.014Z,12.99
2022-08-08T03:58:34.654Z,12.88
2022-08-08T04:01:24.330Z,12.91
2022-08-08T04:04:12.188Z,12.85
2022-08-08T04:07:01.634Z,12.87
2022-08-08T04:10:00.418Z,12.77
2022-08-08T04:12:50.701Z,12.84
2022-08-08T04:15:38.691Z,12.71
2022-08-08T04:18:24.215Z,12.67
2022-08-08T04:21:11.044Z,12.78
2022-08-08T04:24:11.747Z,12.70
2022-08-08T04:27:03.482Z,12.51
2022-08-08T04:30:18.653Z,12.80
2022-08-08T04:33:01.207Z,12.77
2022-08-08T04:35:51.090Z,12.70
2022-08-08T04:38:36.799Z,12.63
2022-08-08T04:41:22.081Z,12.59
2022-08-08T04:44:07.441Z,12.57
2022-08-08T04:46:52.681Z,12.53
2022-08-08T04:50:00.839Z,12.38
2022-08-08T04:52:42.828Z,12.48
2022-08-08T04:55:47.403Z,12.42
2022-08-08T04:58:40.375Z,12.33
2022-08-08T05:01:26.509Z,12.22
2022-08-08T05:04:20.839Z,12.39
2022-08-08T05:07:06.608Z,12.34
2022-08-08T05:09:52.023Z,12.36
2022-08-08T05:12:53.549Z,12.20
2022-08-08T05:16:53.005Z,12.32
2022-08-08T05:18:50.062Z,12.33
2022-08-08T05:21:43.473Z,12.35
2022-08-08T05:24:40.395Z,12.33
2022-08-08T05:27:25.538Z,12.33
2022-08-08T05:30:11.820Z,12.46
2022-08-08T05:32:57.417Z,12.57
2022-08-08T05:35:43.864Z,12.50
2022-08-08T05:38:31.534Z,12.50
2022-08-08T05:41:23.196Z,12.62
2022-08-08T05:44:21.749Z,12.58
2022-08-08T05:47:21.169Z,12.78
2022-08-08T05:50:07.233Z,12.82
2022-08-08T05:52:52.718Z,12.83
2022-08-08T05:56:07.553Z,13.03
2022-08-08T05:59:04.219Z,13.16
2022-08-08T06:01:58.060Z,13.23
2022-08-08T06:04:54.640Z,13.22
2022-08-08T06:07:43.812Z,13.28
2022-08-08T06:10:33.577Z,13.55
2022-08-08T06:13:22.578Z,13.71
2022-08-08T06:16:12.038Z,13.74
2022-08-08T06:19:00.886Z,13.98
2022-08-08T06:21:56.955Z,14.12
2022-08-08T06:24:47.042Z,14.25
2022-08-08T06:27:43.719Z,14.25
2022-08-08T06:30:35.248Z,14.44
2022-08-08T06:33:36.942Z,14.54
2022-08-08T06:36:53.192Z,14.71
2022-08-08T06:39:56.424Z,14.75
2022-08-08T06:42:55.897Z,15.03
2022-08-08T06:45:41.726Z,15.13
2022-08-08T06:48:27.309Z,15.22
2022-08-08T06:51:14.338Z,15.32
2022-08-08T06:54:01.544Z,15.45
2022-08-08T06:56:51.509Z,15.56
2022-08-08T07:00:09.906Z,15.66
2022-08-08T07:02:51.344Z,15.72
2022-08-08T07:05:41.760Z,15.65
2022-08-08T07:08:33.775Z,15.69
2022-08-08T07:11:22.669Z,16.08
2022-08-08T07:14:14.104Z,16.29
2022-08-08T07:17:14.228Z,16.46
2022-08-08T07:20:11.222Z,16.52
2022-08-08T07:23:16.334Z,16.64
2022-08-08T07:26:09.254Z,16.65
2022-08-08T07:28:56.381Z,16.91
2022-08-08T07:31:44.072Z,17.06
2022-08-08T07:34:35.237Z,17.12
2022-08-08T07:37:26.086Z,17.37
2022-08-08T07:40:33.041Z,17.60
2022-08-08T07:43:32.292Z,17.54
2022-08-08T07:46:30.634Z,17.77
2022-08-08T07:49:16.279Z,18.01
2022-08-08T07:52:03.186Z,18.22
2022-08-08T07:54:58.591Z,18.28
2022-08-08T07:57:48.411Z,18.42
2022-08-08T08:00:41.087Z,18.48
2022-08-08T08:03:43.638Z,18.64
2022-08-08T08:06:31.669Z,18.76
2022-08-08T08:09:26.360Z,19.08
2022-08-08T08:12:31.323Z,19.09
2022-08-08T08:15:23.215Z,19.36
2022-08-08T08:18:14.440Z,19.49
2022-08-08T08:21:02.715Z,19.63
2022-08-08T08:23:55.699Z,19.61
2022-08-08T08:26:52.812Z,19.74
2022-08-08T08:29:40.105Z,19.80
2022-08-08T08:32:31.591Z,20.05
2022-08-08T08:35:29.475Z,20.13
2022-08-08T08:38:16.015Z,20.23
2022-08-08T08:41:13.034Z,20.59
2022-08-08T08:44:14.215Z,20.84
2022-08-08T08:47:02.794Z,20.83
2022-08-08T08:49:51.587Z,20.88
2022-08-08T08:52:57.472Z,21.24
2022-08-08T08:55:49.453Z,21.46
2022-08-08T08:58:39.729Z,21.55
2022-08-08T09:01:32.002Z,21.53
2022-08-08T09:04:32.176Z,21.51
2022-08-08T09:07:39.315Z,21.59
2022-08-08T09:10:33.222Z,21.57
2022-08-08T09:13:25.149Z,21.61
2022-08-08T09:16:13.682Z,21.91
2022-08-08T09:18:59.261Z,22.13
2022-08-08T09:22:02.278Z,22.20
2022-08-08T09:24:52.063Z,22.34
2022-08-08T09:27:56.337Z,22.42
2022-08-08T09:30:43.880Z,22.62
2022-08-08T09:34:15.823Z,22.79
2022-08-08T09:36:40.309Z,23.00
2022-08-08T09:39:59.690Z,22.96
2022-08-08T09:42:56.081Z,23.19
2022-08-08T09:46:02.739Z,23.24
2022-08-08T09:48:49.943Z,23.29
2022-08-08T09:51:41.411Z,23.33
2022-08-08T09:54:46.376Z,23.57
2022-08-08T09:57:45.985Z,23.48
2022-08-08T10:00:49.750Z,23.65
2022-08-08T10:03:40.570Z,24.05
2022-08-08T10:06:29.536Z,24.15
2022-08-08T10:09:15.228Z,24.26
2022-08-08T10:12:26.934Z,24.49
2022-08-08T10:15:17.915Z,24.53
2022-08-08T10:18:10.220Z,24.54
2022-08-08T10:21:24.905Z,24.46
2022-08-08T10:24:28.786Z,24.87
2022-08-08T10:27:16.144Z,25.18
2022-08-08T10:30:03.933Z,25.09
2022-08-08T10:33:00.217Z,25.07
2022-08-08T10:36:07.971Z,25.24
2022-08-08T10:39:05.043Z,25.29
2022-08-08T10:42:15.118Z,25.57
2022-08-08T10:45:07.970Z,25.71
2022-08-08T10:47:59.542Z,25.89
2022-08-08T10:50:45.056Z,26.00
2022-08-08T10:53:56.269Z,26.11
2022-08-08T10:56:43.010Z,26.17
2022-08-08T10:59:30.933Z,26.40
2022-08-08T11:02:25.368Z,26.65
2022-08-08T11:05:15.099Z,26.83
2022-08-08T11:08:37.345Z,26.83
2022-08-08T11:11:32.608Z,26.97
2022-08-08T11:14:16.148Z,26.82
2022-08-08T11:17:03.863Z,26.75
2022-08-08T11:19:52.760Z,27.02
2022-08-08T11:22:38.898Z,27.26
2022-08-08T11:25:52.751Z,27.13
2022-08-08T11:28:38.678Z,27.30
2022-08-08T11:31:27.398Z,27.53
2022-08-08T11:34:23.578Z,27.69
2022-08-08T11:37:15.603Z,27.97
2022-08-08T11:40:02.401Z,28.15
2022-08-08T11:42:50.958Z,27.52
2022-08-08T11:45:59.936Z,27.19
2022-08-08T11:48:44.833Z,27.20
2022-08-08T11:51:40.238Z,27.54
2022-08-08T11:54:34.144Z,27.68
2022-08-08T11:57:34.828Z,28.10
2022-08-08T12:00:20.785Z,28.47
2022-08-08T12:03:23.325Z,27.90
2022-08-08T12:06:14.200Z,27.96
2022-08-08T12:09:17.209Z,28.48
2022-08-08T12:12:04.635Z,28.48
2022-08-08T12:15:00.953Z,28.25
2022-08-08T12:17:50.907Z,28.44
2022-08-08T12:20:40.663Z,28.57
2022-08-08T12:23:43.948Z,28.36
2022-08-08T12:26:37.633Z,28.84
2022-08-08T12:29:40.172Z,29.06
2022-08-08T12:32:26.815Z,28.62
2022-08-08T12:35:23.634Z,28.66
2022-08-08T12:38:09.201Z,29.34
2022-08-08T12:41:24.444Z,29.67
2022-08-08T12:44:32.564Z,29.73
2022-08-08T12:47:57.939Z,29.11
2022-08-08T12:50:47.192Z,29.40
2022-08-08T12:53:42.332Z,29.78
2022-08-08T12:56:37.398Z,30.21
2022-08-08T12:59:27.357Z,30.28
2022-08-08T13:02:28.063Z,29.77
2022-08-08T13:05:26.901Z,29.66
2022-08-08T13:08:53.493Z,30.28
2022-08-08T13:12:24.568Z,30.48
2022-08-08T13:14:53.478Z,30.87
2022-08-08T13:18:09.441Z,31.24
2022-08-08T13:20:46.108Z,31.38
2022-08-08T13:23:36.891Z,30.42
2022-08-08T13:26:34.523Z,29.78
2022-08-08T13:29:19.456Z,29.39
2022-08-08T13:32:06.855Z,28.89
2022-08-08T13:34:59.378Z,28.70
2022-08-08T13:38:04.837Z,28.61
2022-08-08T13:40:51.637Z,29.43
2022-08-08T13:43:37.821Z,30.18
2022-08-08T13:46:26.459Z,30.84
2022-08-08T13:50:36.436Z,31.13
2022-08-08T13:52:38.011Z,31.08
2022-08-08T13:55:29.487Z,30.38
2022-08-08T13:58:21.801Z,30.03
2022-08-08T14:01:18.207Z,30.65
2022-08-08T14:04:03.361Z,30.97
2022-08-08T14:06:49.661Z,30.91
2022-08-08T14:10:02.555Z,29.97
2022-08-08T14:12:46.796Z,29.38
2022-08-08T14:15:39.611Z,30.31
2022-08-08T14:18:36.001Z,30.89
2022-08-08T14:21:52.017Z,30.96
2022-08-08T14:24:39.383Z,31.13
2022-08-08T14:27:33.292Z,31.28
2022-08-08T14:30:19.012Z,31.32
2022-08-08T14:33:12.737Z,31.44
2022-08-08T14:36:05.899Z,31.56
2022-08-08T14:38:58.698Z,31.78
2022-08-08T14:41:54.557Z,31.18
2022-08-08T14:44:39.916Z,30.70
2022-08-08T14:47:25.526Z,31.13
2022-08-08T14:50:22.567Z,31.47
2022-08-08T14:53:23.670Z,31.74
2022-08-08T14:56:11.331Z,31.83
2022-08-08T14:58:57.343Z,31.91
2022-08-08T15:01:49.803Z,31.81
2022-08-08T15:04:36.502Z,31.67
2022-08-08T15:07:36.939Z,31.63
2022-08-08T15:10:25.110Z,30.94
2022-08-08T15:13:13.936Z,31.00
2022-08-08T15:16:02.721Z,30.98
2022-08-08T15:18:51.416Z,30.65
2022-08-08T15:21:42.441Z,30.40
2022-08-08T15:24:31.101Z,30.08
2022-08-08T15:28:03.672Z,29.93
2022-08-08T15:30:23.103Z,29.63
2022-08-08T15:33:08.294Z,29.52
2022-08-08T15:35:54.026Z,29.19
2022-08-08T15:38:40.656Z,29.26
2022-08-08T15:41:43.856Z,29.13
2022-08-08T15:44:30.946Z,28.95
2022-08-08T15:47:19.176Z,28.83
2022-08-08T15:50:08.976Z,28.69
2022-08-08T15:53:04.938Z,28.52
2022-08-08T15:55:52.721Z,28.44
2022-08-08T15:58:37.533Z,28.28
2022-08-08T16:01:40.746Z,28.00
2022-08-08T16:04:37.374Z,27.94
2022-08-08T16:07:24.344Z,27.88
2022-08-08T16:13:13.953Z,27.70
2022-08-08T16:13:45.965Z,27.61
2022-08-08T16:16:31.801Z,27.59
2022-08-08T16:19:23.332Z,27.50
2022-08-08T16:22:09.105Z,27.44
2022-08-08T16:25:14.716Z,27.27
2022-08-08T16:28:00.617Z,27.12
2022-08-08T16:30:46.456Z,26.96
2022-08-08T16:33:38.437Z,26.99
2022-08-08T16:36:33.107Z,26.84
2022-08-08T16:39:28.194Z,26.70
2022-08-08T16:42:25.820Z,26.66
2022-08-08T16:46:37.262Z,26.43
2022-08-08T16:48:16.494Z,26.51
2022-08-08T16:51:03.781Z,26.38
2022-08-08T16:55:18.135Z,26.27
2022-08-08T16:57:03.883Z,26.16
2022-08-08T17:00:08.487Z,25.98
2022-08-08T17:02:53.923Z,26.03
2022-08-08T17:05:44.601Z,25.95
2022-08-08T17:08:30.892Z,25.84
2022-08-08T17:11:16.321Z,25.70
2022-08-08T17:14:03.139Z,25.57
2022-08-08T17:16:57.517Z,25.48
2022-08-08T17:19:45.777Z,25.37
2022-08-08T17:22:39.289Z,25.35
2022-08-08T17:25:28.376Z,25.30
2022-08-08T17:28:34.618Z,25.20
2022-08-08T17:31:44.894Z,25.07
2022-08-08T17:34:53.982Z,24.99
2022-08-08T17:37:32.638Z,24.92
2022-08-08T17:40:18.460Z,24.74
2022-08-08T17:43:04.172Z,24.74
2022-08-08T17:45:50.667Z,24.69
2022-08-08T17:48:35.891Z,24.62
2022-08-08T17:51:25.562Z,24.57
2022-08-08T17:54:22.258Z,24.41
2022-08-08T17:57:11.883Z,24.43
2022-08-08T18:00:01.737Z,24.33
2022-08-08T18:02:52.519Z,24.26
2022-08-08T18:05:52.375Z,24.06
2022-08-08T18:08:41.958Z,23.97
2022-08-08T18:11:29.608Z,23.73
2022-08-08T18:14:18.864Z,23.81
2022-08-08T18:17:17.175Z,23.74
2022-08-08T18:20:36.977Z,23.60
2022-08-08T18:23:12.570Z,23.53
2022-08-08T18:26:03.997Z,23.46
2022-08-08T18:28:54.956Z,23.34
2022-08-08T18:31:40.458Z,23.36
2022-08-08T18:34:27.822Z,23.18
2022-08-08T18:37:17.761Z,23.22
2022-08-08T18:40:18.480Z,23.16
2022-08-08T18:43:19.938Z,23.11
2022-08-08T18:46:55.862Z,22.94
2022-08-08T18:49:11.233Z,22.89
2022-08-08T18:51:56.436Z,22.79
2022-08-08T18:54:41.546Z,22.59
2022-08-08T18:57:31.813Z,22.56
2022-08-08T19:00:21.681Z,22.39
2022-08-08T19:03:08.530Z,22.36
2022-08-08T19:05:53.510Z,22.23
2022-08-08T19:08:39.784Z,22.12
2022-08-08T19:11:25.787Z,22.02
2022-08-08T19:14:12.659Z,21.99
2022-08-08T19:16:57.826Z,21.96
2022-08-08T19:19:43.875Z,21.91
2022-08-08T19:22:29.252Z,21.86
2022-08-08T19:25:29.983Z,21.78
2022-08-08T19:28:23.004Z,21.71
2022-08-08T19:31:09.277Z,21.63
2022-08-08T19:34:29.496Z,21.46
2022-08-08T19:37:00.096Z,21.42
2022-08-08T19:39:46.137Z,21.39
2022-08-08T19:42:35.963Z,21.33
2022-08-08T19:45:58.565Z,21.28
2022-08-08T19:48:29.381Z,21.15
2022-08-08T19:51:16.705Z,21.12
2022-08-08T19:54:19.336Z,21.11
2022-08-08T19:57:07.832Z,20.90
2022-08-08T19:59:53.121Z,20.98
2022-08-08T20:02:38.957Z,20.90
2022-08-08T20:06:15.099Z,20.89
2022-08-08T20:08:32.069Z,20.82
2022-08-08T20:11:26.182Z,20.81
2022-08-08T20:14:34.566Z,20.68
2022-08-08T20:17:26.927Z,20.72
2022-08-08T20:20:19.657Z,20.56
2022-08-08T20:23:12.510Z,20.64
2022-08-08T20:26:01.585Z,20.55
2022-08-08T20:28:47.613Z,20.48
2022-08-08T20:32:02.874Z,20.48
2022-08-08T20:34:47.881Z,20.43
2022-08-08T20:37:52.898Z,20.42
2022-08-08T20:40:40.937Z,20.38
2022-08-08T20:43:43.971Z,20.30
2022-08-08T20:46:32.350Z,20.22
2022-08-08T20:49:17.464Z,20.17
2022-08-08T20:52:02.951Z,20.14
2022-08-08T20:54:49.155Z,20.00
2022-08-08T20:57:34.927Z,20.07
2022-08-08T21:00:29.433Z,19.97
2022-08-08T21:03:17.076Z,19.91
2022-08-08T21:06:02.640Z,19.94
2022-08-08T21:08:52.096Z,19.80
2022-08-08T21:11:51.956Z,19.83
2022-08-08T21:14:38.827Z,19.82
2022-08-08T21:17:24.495Z,19.73
2022-08-08T21:20:10.380Z,19.75
2022-08-08T21:22:55.516Z,19.74
2022-08-08T21:25:40.694Z,19.68
2022-08-08T21:28:35.776Z,19.50
2022-08-08T21:31:23.658Z,19.62
2022-08-08T21:34:09.209Z,19.58
2022-08-08T21:37:11.307Z,19.49
2022-08-08T21:40:01.642Z,19.48
2022-08-08T21:42:50.329Z,19.41
2022-08-08T21:48:00.423Z,19.41
2022-08-08T21:48:44.827Z,19.30
2022-08-08T21:54:32.949Z,19.22
2022-08-08T21:55:02.621Z,19.33
2022-08-08T21:58:03.942Z,19.28
2022-08-08T22:00:54.930Z,19.18
2022-08-08T22:03:40.998Z,19.13
2022-08-08T22:06:31.090Z,19.06
2022-08-08T22:09:17.381Z,19.06
2022-08-08T22:12:09.601Z,19.00
2022-08-08T22:14:54.973Z,18.98
2022-08-08T22:17:45.622Z,18.96
2022-08-08T22:20:31.350Z,18.90
2022-08-08T22:26:27.036Z,18.79
2022-08-08T22:29:57.256Z,18.73
2022-08-08T22:32:12.577Z,18.71
2022-08-08T22:34:57.851Z,18.73
2022-08-08T22:37:53.419Z,18.64
2022-08-08T22:40:40.606Z,18.48
2022-08-08T22:43:26.941Z,18.52
2022-08-08T22:46:17.310Z,18.52
2022-08-08T22:49:02.569Z,18.50
2022-08-08T22:51:48.025Z,18.41
2022-08-08T22:54:56.093Z,18.31
2022-08-08T22:57:43.880Z,18.38
2022-08-08T23:00:34.922Z,18.35
2022-08-08T23:03:20.699Z,18.29
2022-08-08T23:06:06.309Z,18.33
2022-08-08T23:08:55.508Z,18.26
2022-08-08T23:12:17.587Z,18.13
2022-08-08T23:14:56.081Z,18.03
2022-08-08T23:17:46.555Z,18.03
2022-08-08T23:20:44.138Z,18.10
2022-08-08T23:23:29.605Z,18.08
2022-08-08T23:26:16.776Z,18.06
2022-08-08T23:29:02.496Z,18.00
2022-08-08T23:31:47.753Z,17.94
2022-08-08T23:34:36.596Z,17.90
2022-08-08T23:37:24.546Z,17.78
2022-08-08T23:40:10.558Z,17.59
2022-08-08T23:42:56.039Z,17.36
2022-08-08T23:49:03.601Z,17.11
2022-08-08T23:49:05.195Z,16.88
2022-08-08T23:52:06.326Z,16.87
2022-08-08T23:55:07.697Z,16.68
2022-08-08T23:58:01.595Z,16.69
